createdAt,value
2022-12-16T00:00:14.881Z,65.93
2022-12-16T00:02:42.145Z,64.60
2022-12-16T00:05:09.139Z,76.03
2022-12-16T00:07:35.833Z,63.77
2022-12-16T00:10:03.033Z,63.07
2022-12-16T00:12:29.779Z,63.63
2022-12-16T00:14:57.025Z,58.60
2022-12-16T00:17:23.969Z,63.47
2022-12-16T00:19:50.810Z,68.93
2022-12-16T00:22:17.594Z,76.00
2022-12-16T00:24:44.397Z,76.90
2022-12-16T00:27:11.228Z,57.10
2022-12-16T00:29:38.089Z,70.53
2022-12-16T00:32:06.406Z,63.00
2022-12-16T00:34:33.407Z,65.17
2022-12-16T00:37:00.200Z,67.57
2022-12-16T00:39:27.033Z,61.07
2022-12-16T00:41:53.817Z,76.07
2022-12-16T00:44:21.721Z,69.60
2022-12-16T00:46:48.558Z,56.37
2022-12-16T00:49:15.332Z,64.70
2022-12-16T00:51:42.223Z,80.43
2022-12-16T00:54:08.908Z,59.27
2022-12-16T00:56:35.806Z,66.63
2022-12-16T00:59:02.547Z,62.83
2022-12-16T01:01:29.488Z,66.27
2022-12-16T01:03:57.992Z,63.00
2022-12-16T01:06:24.864Z,69.13
2022-12-16T01:08:51.678Z,55.47
2022-12-16T01:11:20.055Z,54.77
2022-12-16T01:13:50.477Z,55.93
2022-12-16T01:16:19.611Z,60.27
2022-12-16T01:18:46.420Z,65.07
2022-12-16T01:21:15.381Z,64.13
2022-12-16T01:23:42.226Z,57.83
2022-12-16T01:26:15.454Z,60.87
2022-12-16T01:28:42.354Z,64.23
2022-12-16T01:31:09.151Z,76.80
2022-12-16T01:33:36.212Z,70.97
2022-12-16T01:36:06.077Z,56.97
2022-12-16T01:38:34.025Z,54.97
2022-12-16T01:41:00.862Z,63.10
2022-12-16T01:43:30.541Z,55.83
2022-12-16T01:46:13.807Z,57.50
2022-12-16T01:48:58.987Z,58.83
2022-12-16T01:51:36.188Z,58.13
2022-12-16T01:54:10.107Z,61.77
2022-12-16T01:56:41.892Z,56.30
2022-12-16T01:59:09.114Z,57.63
2022-12-16T02:01:36.000Z,58.93
2022-12-16T02:04:03.861Z,53.73
2022-12-16T02:06:31.302Z,62.47
2022-12-16T02:09:03.152Z,60.20
2022-12-16T02:11:54.458Z,65.77
2022-12-16T02:14:40.999Z,54.57
2022-12-16T02:17:19.666Z,52.30
2022-12-16T02:20:04.788Z,59.67
2022-12-16T02:23:10.391Z,54.77
2022-12-16T02:26:01.564Z,48.93
2022-12-16T02:28:48.948Z,62.73
2022-12-16T02:31:25.253Z,68.10
2022-12-16T02:34:10.117Z,52.07
2022-12-16T02:37:08.010Z,63.63
2022-12-16T02:39:38.973Z,53.83
2022-12-16T02:42:32.111Z,50.50
2022-12-16T02:45:07.081Z,53.57
2022-12-16T02:47:33.961Z,53.77
2022-12-16T02:50:00.679Z,46.40
2022-12-16T02:52:30.929Z,57.53
2022-12-16T02:55:04.794Z,67.30
2022-12-16T02:58:12.915Z,54.90
2022-12-16T03:01:09.742Z,50.30
2022-12-16T03:03:48.332Z,56.30
2022-12-16T03:06:18.719Z,48.40
2022-12-16T03:08:51.745Z,56.27
2022-12-16T03:11:18.690Z,52.03
2022-12-16T03:13:50.529Z,49.23
2022-12-16T03:16:20.879Z,49.90
2022-12-16T03:18:52.922Z,49.27
2022-12-16T03:21:25.354Z,47.30
2022-12-16T03:23:57.487Z,42.80
2022-12-16T03:26:43.502Z,48.47
2022-12-16T03:29:44.180Z,49.03
2022-12-16T03:32:36.105Z,44.57
2022-12-16T03:35:24.432Z,51.70
2022-12-16T03:37:55.419Z,44.80
2022-12-16T03:40:24.142Z,49.70
2022-12-16T03:42:53.704Z,52.67
2022-12-16T03:45:29.167Z,49.40
2022-12-16T03:47:59.392Z,52.53
2022-12-16T03:50:30.209Z,55.83
2022-12-16T03:52:56.916Z,54.70
2022-12-16T03:55:24.275Z,53.67
2022-12-16T03:57:51.094Z,56.60
2022-12-16T04:00:18.507Z,55.70
2022-12-16T04:02:45.400Z,59.40
2022-12-16T04:05:12.336Z,45.77
2022-12-16T04:07:39.175Z,45.37
2022-12-16T04:10:06.885Z,50.83
2022-12-16T04:12:52.404Z,53.03
2022-12-16T04:15:38.052Z,48.37
2022-12-16T04:18:24.760Z,48.53
2022-12-16T04:21:13.067Z,52.70
2022-12-16T04:24:07.344Z,41.60
2022-12-16T04:26:57.274Z,55.00
2022-12-16T04:29:24.383Z,38.97
2022-12-16T04:31:52.080Z,49.97
2022-12-16T04:34:29.248Z,52.20
2022-12-16T04:37:20.015Z,47.97
2022-12-16T04:40:06.289Z,42.40
2022-12-16T04:42:51.828Z,48.37
2022-12-16T04:45:37.199Z,51.80
2022-12-16T04:48:22.883Z,38.60
2022-12-16T04:51:08.355Z,48.50
2022-12-16T04:53:53.891Z,48.10
2022-12-16T04:56:39.302Z,48.50
2022-12-16T04:59:24.740Z,45.37
2022-12-16T05:02:10.155Z,42.27
2022-12-16T05:04:55.451Z,53.80
2022-12-16T05:07:40.957Z,45.07
2022-12-16T05:10:27.302Z,49.10
2022-12-16T05:13:13.336Z,43.20
2022-12-16T05:15:58.974Z,41.53
2022-12-16T05:18:44.444Z,42.13
2022-12-16T05:21:30.037Z,42.30
2022-12-16T05:24:15.522Z,43.93
2022-12-16T05:27:01.251Z,53.03
2022-12-16T05:29:46.473Z,41.80
2022-12-16T05:32:32.026Z,37.23
2022-12-16T05:35:17.828Z,42.40
2022-12-16T05:38:03.069Z,34.73
2022-12-16T05:40:48.584Z,44.77
2022-12-16T05:43:34.294Z,47.87
2022-12-16T05:46:19.874Z,44.73
2022-12-16T05:49:05.302Z,37.90
2022-12-16T05:51:50.745Z,41.50
2022-12-16T05:54:36.237Z,45.73
2022-12-16T05:57:21.619Z,42.27
2022-12-16T06:00:07.180Z,40.30
2022-12-16T06:02:52.846Z,41.63
2022-12-16T06:05:38.392Z,40.53
2022-12-16T06:08:23.820Z,45.17
2022-12-16T06:11:09.267Z,60.10
2022-12-16T06:13:54.819Z,43.97
2022-12-16T06:16:40.262Z,38.57
2022-12-16T06:19:25.826Z,37.17
2022-12-16T06:25:15.958Z,37.73
2022-12-16T06:28:01.421Z,36.77
2022-12-16T06:30:46.858Z,42.40
2022-12-16T06:33:32.717Z,38.97
2022-12-16T06:36:18.318Z,38.97
2022-12-16T06:39:03.728Z,41.67
2022-12-16T06:41:49.270Z,47.67
2022-12-16T06:44:34.719Z,42.40
2022-12-16T06:47:20.175Z,36.90
2022-12-16T06:50:05.532Z,57.93
2022-12-16T06:52:51.029Z,42.47
2022-12-16T06:55:36.412Z,40.07
2022-12-16T06:58:21.832Z,42.67
2022-12-16T07:01:07.474Z,40.80
2022-12-16T07:03:52.756Z,42.30
2022-12-16T07:06:38.176Z,45.00
2022-12-16T07:09:37.365Z,47.40
2022-12-16T07:12:22.894Z,44.00
2022-12-16T07:15:08.417Z,39.77
2022-12-16T07:17:53.905Z,43.27
2022-12-16T07:20:39.316Z,41.20
2022-12-16T07:23:24.741Z,45.17
2022-12-16T07:26:10.191Z,53.00
2022-12-16T07:28:55.766Z,40.93
2022-12-16T07:31:41.328Z,42.70
2022-12-16T07:34:26.695Z,40.73
2022-12-16T07:37:12.126Z,37.80
2022-12-16T07:39:57.546Z,38.77
2022-12-16T07:42:43.098Z,39.40
2022-12-16T07:45:29.577Z,36.63
2022-12-16T07:50:45.783Z,37.20
2022-12-16T07:53:31.596Z,43.60
2022-12-16T07:56:17.151Z,39.57
2022-12-16T07:59:02.661Z,40.63
2022-12-16T08:01:58.796Z,38.23
2022-12-16T08:04:44.401Z,49.87
2022-12-16T08:07:29.851Z,39.77
2022-12-16T08:10:15.494Z,46.37
2022-12-16T08:13:01.072Z,41.07
2022-12-16T08:26:54.041Z,36.80
2022-12-16T08:29:46.424Z,46.10
2022-12-16T08:32:33.068Z,52.67
2022-12-16T08:35:18.757Z,42.07
2022-12-16T08:38:08.869Z,49.23
2022-12-16T08:40:57.440Z,43.80
2022-12-16T08:43:42.787Z,51.90
2022-12-16T08:46:28.374Z,50.40
2022-12-16T08:49:13.549Z,46.33
2022-12-16T08:51:59.113Z,46.33
2022-12-16T08:54:44.388Z,45.53
2022-12-16T08:57:29.856Z,46.27
2022-12-16T09:00:15.279Z,43.63
2022-12-16T09:03:00.820Z,54.53
2022-12-16T09:05:46.686Z,51.73
2022-12-16T09:08:31.947Z,46.70
2022-12-16T09:11:20.668Z,39.47
2022-12-16T09:14:06.238Z,45.00
2022-12-16T09:16:51.630Z,46.43
2022-12-16T09:19:37.182Z,45.60
2022-12-16T09:22:22.839Z,49.53
2022-12-16T09:25:08.236Z,44.70
2022-12-16T09:27:53.647Z,54.80
2022-12-16T09:30:39.063Z,46.27
2022-12-16T09:33:26.177Z,45.40
2022-12-16T09:36:11.713Z,51.07
2022-12-16T09:38:57.096Z,56.60
2022-12-16T09:41:45.308Z,43.93
2022-12-16T09:45:00.635Z,46.90
2022-12-16T09:47:53.700Z,46.67
2022-12-16T09:50:44.301Z,48.73
2022-12-16T09:53:36.475Z,45.17
2022-12-16T09:56:25.977Z,53.07
2022-12-16T09:59:18.399Z,51.10
2022-12-16T10:02:04.197Z,59.60
2022-12-16T10:04:49.565Z,58.10
2022-12-16T10:07:39.756Z,47.93
2022-12-16T10:10:36.835Z,55.10
2022-12-16T10:13:43.019Z,47.13
2022-12-16T10:16:43.178Z,45.07
2022-12-16T10:19:39.202Z,45.47
2022-12-16T10:22:59.788Z,59.33
2022-12-16T10:25:56.324Z,45.53
2022-12-16T10:29:04.553Z,44.87
2022-12-16T10:31:51.096Z,39.33
2022-12-16T10:34:51.193Z,52.40
2022-12-16T10:38:02.965Z,57.47
2022-12-16T10:40:52.389Z,73.23
2022-12-16T10:43:56.837Z,52.20
2022-12-16T10:46:46.435Z,55.90
2022-12-16T10:49:34.825Z,52.37
2022-12-16T10:52:20.643Z,52.83
2022-12-16T10:55:17.247Z,48.90
2022-12-16T10:58:17.993Z,59.80
2022-12-16T11:01:06.634Z,50.20
2022-12-16T11:03:54.456Z,51.63
2022-12-16T11:07:06.248Z,45.20
2022-12-16T11:09:52.779Z,51.80
2022-12-16T11:12:51.175Z,51.37
2022-12-16T11:15:47.117Z,47.23
2022-12-16T11:18:41.074Z,63.00
2022-12-16T11:21:38.290Z,58.27
2022-12-16T11:24:30.407Z,51.33
2022-12-16T11:27:24.227Z,46.67
2022-12-16T11:30:28.703Z,56.43
2022-12-16T11:33:17.135Z,48.97
2022-12-16T11:36:07.024Z,50.53
2022-12-16T11:39:01.410Z,57.83
2022-12-16T11:41:54.505Z,57.80
2022-12-16T11:44:54.993Z,70.43
2022-12-16T11:47:53.987Z,49.47
2022-12-16T11:50:45.522Z,61.07
2022-12-16T11:54:08.502Z,64.10
2022-12-16T11:56:57.749Z,62.73
2022-12-16T11:59:52.671Z,59.80
2022-12-16T12:02:57.085Z,69.47
2022-12-16T12:05:57.311Z,54.70
2022-12-16T12:09:00.687Z,67.20
2022-12-16T12:11:56.779Z,75.33
2022-12-16T12:14:50.987Z,64.80
2022-12-16T12:18:15.951Z,58.83
2022-12-16T12:21:25.898Z,61.60
2022-12-16T12:24:22.943Z,63.67
2022-12-16T12:27:20.667Z,64.20
2022-12-16T12:30:24.955Z,76.83
2022-12-16T12:33:50.424Z,64.00
2022-12-16T12:37:18.544Z,64.27
2022-12-16T12:40:20.501Z,69.30
2022-12-16T12:43:10.580Z,72.00
2022-12-16T12:46:20.523Z,75.63
2022-12-16T12:49:29.248Z,78.47
2022-12-16T12:52:25.265Z,74.03
2022-12-16T12:55:40.077Z,77.90
2022-12-16T12:58:26.174Z,91.27
2022-12-16T13:01:15.392Z,76.60
2022-12-16T13:04:24.849Z,78.93
2022-12-16T13:07:11.861Z,73.90
2022-12-16T13:09:57.812Z,75.77
2022-12-16T13:12:50.436Z,74.57
2022-12-16T13:15:53.724Z,81.20
2022-12-16T13:18:42.304Z,66.50
2022-12-16T13:21:56.297Z,96.90
2022-12-16T13:24:41.759Z,69.57
2022-12-16T13:27:35.008Z,97.87
2022-12-16T13:30:29.025Z,74.70
2022-12-16T13:33:24.718Z,73.27
2022-12-16T13:36:18.419Z,70.17
2022-12-16T13:39:06.559Z,73.60
2022-12-16T13:41:52.127Z,71.83
2022-12-16T13:45:00.211Z,68.70
2022-12-16T13:48:00.525Z,73.20
2022-12-16T13:51:00.862Z,75.60
2022-12-16T13:53:50.207Z,76.10
2022-12-16T13:56:56.796Z,69.10
2022-12-16T13:59:46.767Z,66.90
2022-12-16T14:02:40.134Z,75.60
2022-12-16T14:05:51.405Z,70.93
2022-12-16T14:08:39.619Z,74.53
2022-12-16T14:11:34.815Z,78.30
2022-12-16T14:14:33.072Z,68.77
2022-12-16T14:17:23.225Z,76.73
2022-12-16T14:20:21.723Z,58.27
2022-12-16T14:23:55.444Z,62.93
2022-12-16T14:26:34.785Z,79.53
2022-12-16T14:29:31.366Z,80.50
2022-12-16T14:32:16.927Z,77.57
2022-12-16T14:35:02.123Z,50.80
2022-12-16T14:37:56.142Z,61.10
2022-12-16T14:40:47.665Z,71.47
2022-12-16T14:43:36.681Z,71.70
2022-12-16T14:46:22.501Z,65.73
2022-12-16T14:49:09.367Z,66.60
2022-12-16T14:52:05.069Z,86.93
2022-12-16T14:54:58.725Z,71.33
2022-12-16T14:57:48.892Z,74.47
2022-12-16T15:00:42.794Z,73.30
2022-12-16T15:03:41.546Z,64.03
2022-12-16T15:06:32.785Z,61.23
2022-12-16T15:09:22.674Z,66.03
2022-12-16T15:12:12.408Z,58.10
2022-12-16T15:14:59.449Z,67.40
2022-12-16T15:18:10.149Z,72.43
2022-12-16T15:21:00.176Z,73.60
2022-12-16T15:23:49.914Z,65.40
2022-12-16T15:26:43.758Z,66.67
2022-12-16T15:29:54.904Z,59.27
2022-12-16T15:32:46.346Z,66.60
2022-12-16T15:36:10.390Z,65.00
2022-12-16T15:38:55.803Z,67.03
2022-12-16T15:41:53.474Z,62.10
2022-12-16T15:44:44.844Z,61.23
2022-12-16T15:47:53.752Z,60.80
2022-12-16T15:50:42.866Z,57.57
2022-12-16T15:53:51.141Z,66.37
2022-12-16T15:56:42.072Z,69.50
2022-12-16T15:59:50.456Z,67.30
2022-12-16T16:02:45.807Z,71.13
2022-12-16T16:05:33.282Z,75.93
2022-12-16T16:08:18.637Z,69.30
2022-12-16T16:11:04.633Z,70.50
2022-12-16T16:13:50.421Z,84.27
2022-12-16T16:16:35.791Z,73.80
2022-12-16T16:19:21.327Z,63.37
2022-12-16T16:22:07.923Z,62.30
2022-12-16T16:24:53.308Z,56.80
2022-12-16T16:27:38.942Z,56.50
2022-12-16T16:30:25.000Z,58.13
2022-12-16T16:33:10.473Z,58.73
2022-12-16T16:35:56.024Z,58.63
2022-12-16T16:38:41.502Z,66.10
2022-12-16T16:41:33.602Z,62.27
2022-12-16T16:44:20.220Z,72.80
2022-12-16T16:47:05.662Z,61.90
2022-12-16T16:49:59.569Z,63.03
2022-12-16T16:52:46.745Z,64.20
2022-12-16T16:55:41.449Z,69.23
2022-12-16T16:58:43.523Z,68.67
2022-12-16T17:01:32.784Z,67.07
2022-12-16T17:04:18.241Z,72.43
2022-12-16T17:07:03.474Z,79.70
2022-12-16T17:10:08.853Z,77.70
2022-12-16T17:12:56.559Z,77.33
2022-12-16T17:15:50.909Z,59.47
2022-12-16T17:18:41.774Z,68.70
2022-12-16T17:21:30.241Z,73.23
2022-12-16T17:24:32.520Z,72.33
2022-12-16T17:27:25.332Z,72.80
2022-12-16T17:30:10.894Z,65.47
2022-12-16T17:32:56.343Z,64.50
2022-12-16T17:35:41.778Z,64.47
2022-12-16T17:38:30.696Z,67.60
2022-12-16T17:41:16.306Z,60.50
2022-12-16T17:44:01.628Z,66.77
2022-12-16T17:46:47.183Z,68.57
2022-12-16T17:49:32.332Z,58.00
2022-12-16T17:52:17.868Z,56.50
2022-12-16T17:55:03.250Z,65.43
2022-12-16T17:57:48.707Z,58.57
2022-12-16T18:00:34.744Z,64.30
2022-12-16T18:03:20.207Z,64.40
2022-12-16T18:06:05.482Z,71.20
2022-12-16T18:08:51.501Z,52.60
2022-12-16T18:11:38.935Z,60.87
2022-12-16T18:14:24.638Z,69.30
2022-12-16T18:17:09.961Z,56.97
2022-12-16T18:19:55.389Z,59.17
2022-12-16T18:22:40.952Z,58.07
2022-12-16T18:28:04.136Z,64.00
2022-12-16T18:30:49.612Z,59.33
2022-12-16T18:33:35.449Z,59.47
2022-12-16T18:36:21.264Z,47.90
2022-12-16T18:39:06.832Z,59.23
2022-12-16T18:41:52.247Z,73.20
2022-12-16T18:44:37.697Z,61.50
2022-12-16T18:47:23.184Z,62.67
2022-12-16T18:50:32.777Z,74.67
2022-12-16T18:53:21.319Z,70.60
2022-12-16T18:56:06.907Z,68.60
2022-12-16T18:58:54.111Z,67.50
2022-12-16T19:01:39.599Z,67.17
2022-12-16T19:04:24.972Z,63.03
2022-12-16T19:07:10.337Z,66.33
2022-12-16T19:09:55.872Z,70.40
2022-12-16T19:12:41.139Z,71.67
2022-12-16T19:15:26.652Z,78.00
2022-12-16T19:18:12.144Z,67.40
2022-12-16T19:20:57.680Z,64.73
2022-12-16T19:23:43.190Z,69.20
2022-12-16T19:26:29.068Z,58.03
2022-12-16T19:29:14.600Z,59.03
2022-12-16T19:32:00.154Z,58.47
2022-12-16T19:34:45.588Z,61.37
2022-12-16T19:37:31.104Z,66.87
2022-12-16T19:40:16.352Z,67.20
2022-12-16T19:43:01.805Z,55.57
2022-12-16T19:45:47.375Z,66.57
2022-12-16T19:48:32.662Z,71.43
2022-12-16T19:51:19.704Z,63.73
2022-12-16T19:54:05.800Z,69.90
2022-12-16T19:56:51.860Z,68.67
2022-12-16T19:59:38.505Z,68.77
2022-12-16T20:02:25.617Z,59.63
2022-12-16T20:05:11.231Z,67.73
2022-12-16T20:07:56.550Z,68.97
2022-12-16T20:10:41.653Z,74.47
2022-12-16T20:13:30.261Z,72.10
2022-12-16T20:16:24.039Z,85.80
2022-12-16T20:19:13.010Z,72.07
2022-12-16T20:22:05.818Z,85.57
2022-12-16T20:25:06.160Z,96.97
2022-12-16T20:27:51.264Z,86.00
2022-12-16T20:30:37.175Z,65.33
2022-12-16T20:33:22.796Z,65.90
2022-12-16T20:36:18.984Z,64.90
2022-12-16T20:39:05.569Z,75.37
2022-12-16T20:41:51.802Z,63.00
2022-12-16T20:44:37.012Z,68.50
2022-12-16T20:47:22.733Z,61.40
2022-12-16T20:50:08.038Z,60.30
2022-12-16T20:52:54.598Z,60.67
2022-12-16T20:55:41.952Z,62.63
2022-12-16T20:58:27.446Z,72.30
2022-12-16T21:01:14.063Z,68.50
2022-12-16T21:03:59.563Z,59.17
2022-12-16T21:06:45.238Z,64.00
2022-12-16T21:09:30.692Z,66.27
2022-12-16T21:12:16.172Z,76.23
2022-12-16T21:15:01.762Z,69.27
2022-12-16T21:17:47.368Z,70.70
2022-12-16T21:20:33.385Z,69.93
2022-12-16T21:23:20.434Z,69.57
2022-12-16T21:26:06.007Z,62.20
2022-12-16T21:28:51.813Z,76.47
2022-12-16T21:31:37.384Z,74.50
2022-12-16T21:34:23.931Z,64.93
2022-12-16T21:37:09.889Z,73.07
2022-12-16T21:39:55.351Z,85.07
2022-12-16T21:42:44.014Z,75.80
2022-12-16T21:45:29.843Z,72.33
2022-12-16T21:48:15.187Z,66.33
2022-12-16T21:51:00.596Z,62.23
2022-12-16T21:53:46.315Z,58.47
2022-12-16T21:56:32.203Z,65.03
2022-12-16T21:59:17.680Z,54.33
2022-12-16T22:02:04.572Z,51.70
2022-12-16T22:04:49.787Z,52.60
2022-12-16T22:07:35.303Z,48.70
2022-12-16T22:10:20.674Z,50.30
2022-12-16T22:13:06.035Z,49.17
2022-12-16T22:15:51.560Z,62.97
2022-12-16T22:18:37.668Z,48.80
2022-12-16T22:21:24.419Z,52.67
2022-12-16T22:24:11.157Z,56.33
2022-12-16T22:26:56.767Z,59.53
2022-12-16T22:29:42.142Z,43.97
2022-12-16T22:32:27.484Z,52.20
2022-12-16T22:35:13.040Z,53.33
2022-12-16T22:37:58.702Z,50.67
2022-12-16T22:40:44.257Z,52.40
2022-12-16T22:43:29.750Z,46.77
2022-12-16T22:46:21.531Z,56.63
2022-12-16T22:49:07.638Z,49.33
2022-12-16T22:51:53.039Z,51.23
2022-12-16T22:54:39.647Z,52.70
2022-12-16T22:57:29.688Z,48.37
2022-12-16T23:00:15.340Z,58.20
2022-12-16T23:03:00.826Z,51.27
2022-12-16T23:05:46.359Z,45.30
2022-12-16T23:08:31.869Z,51.57
2022-12-16T23:11:18.459Z,46.33
2022-12-16T23:14:04.261Z,51.77
2022-12-16T23:16:49.453Z,43.70
2022-12-16T23:19:35.032Z,45.07
2022-12-16T23:22:20.191Z,47.90
2022-12-16T23:25:05.571Z,45.80
2022-12-16T23:27:51.055Z,48.90
2022-12-16T23:30:37.444Z,49.03
2022-12-16T23:33:22.978Z,50.53
2022-12-16T23:36:08.176Z,49.27
2022-12-16T23:38:53.800Z,54.50
2022-12-16T23:41:42.123Z,40.77
2022-12-16T23:44:27.610Z,46.60
2022-12-16T23:47:12.686Z,45.87
2022-12-16T23:49:58.225Z,48.37
2022-12-16T23:52:43.576Z,48.97
2022-12-16T23:55:29.104Z,45.37
2022-12-16T23:58:18.914Z,51.40
